createdAt,value
2017-09-30T00:02:18.879Z,31.93
2017-09-30T00:04:46.347Z,37.07
2017-09-30T00:07:14.580Z,35.27
2017-09-30T00:09:42.060Z,29.30
2017-09-30T00:12:09.539Z,26.03
2017-09-30T00:14:37.791Z,27.13
2017-09-30T00:17:05.266Z,30.40
2017-09-30T00:19:33.498Z,27.77
2017-09-30T00:22:00.979Z,29.50
2017-09-30T00:24:28.441Z,21.77
2017-09-30T00:26:55.924Z,21.47
2017-09-30T00:29:24.151Z,22.73
2017-09-30T00:31:51.626Z,16.30
2017-09-30T00:34:19.093Z,19.87
2017-09-30T00:36:47.318Z,11.33
2017-09-30T00:39:14.804Z,12.90
2017-09-30T00:41:42.271Z,12.40
2017-09-30T00:44:09.756Z,22.30
2017-09-30T00:46:37.210Z,16.17
2017-09-30T00:49:04.684Z,15.07
2017-09-30T00:51:32.147Z,11.97
2017-09-30T00:53:59.623Z,12.57
2017-09-30T00:56:27.103Z,10.20
2017-09-30T00:58:54.562Z,10.50
2017-09-30T01:01:23.559Z,14.00
2017-09-30T01:03:51.008Z,10.10
2017-09-30T01:06:18.462Z,14.83
2017-09-30T01:08:45.931Z,10.73
2017-09-30T01:11:14.154Z,15.60
2017-09-30T01:13:41.641Z,14.57
2017-09-30T01:16:09.099Z,20.00
2017-09-30T01:18:36.567Z,16.90
2017-09-30T01:21:04.047Z,16.67
2017-09-30T01:23:32.274Z,19.07
2017-09-30T01:25:59.746Z,13.20
2017-09-30T01:28:27.219Z,15.50
2017-09-30T01:30:54.691Z,14.60
2017-09-30T01:33:22.910Z,19.63
2017-09-30T01:35:50.375Z,15.47
2017-09-30T01:38:17.864Z,19.17
2017-09-30T01:40:46.102Z,23.90
2017-09-30T01:43:13.587Z,18.57
2017-09-30T01:45:41.054Z,21.57
2017-09-30T01:48:08.528Z,19.87
2017-09-30T01:50:36.762Z,21.90
2017-09-30T01:53:04.243Z,17.60
2017-09-30T01:55:31.714Z,12.70
2017-09-30T01:57:59.942Z,12.73
2017-09-30T02:00:27.423Z,16.13
2017-09-30T02:02:54.891Z,23.00
2017-09-30T02:05:23.137Z,17.90
2017-09-30T02:07:50.604Z,13.93
2017-09-30T02:10:18.078Z,14.67
2017-09-30T02:12:46.367Z,19.37
2017-09-30T02:15:14.591Z,13.10
2017-09-30T02:17:42.054Z,14.97
2017-09-30T02:20:09.531Z,11.40
2017-09-30T02:22:36.995Z,15.77
2017-09-30T02:25:05.310Z,17.40
2017-09-30T02:27:32.767Z,17.00
2017-09-30T02:30:00.243Z,17.20
2017-09-30T02:32:27.714Z,16.73
2017-09-30T02:34:55.175Z,26.70
2017-09-30T02:37:22.650Z,20.77
2017-09-30T02:39:50.107Z,21.30
2017-09-30T02:42:18.370Z,17.03
2017-09-30T02:44:45.842Z,20.00
2017-09-30T02:47:14.070Z,20.50
2017-09-30T02:49:41.555Z,20.27
2017-09-30T02:52:09.030Z,20.50
2017-09-30T02:54:37.262Z,20.97
2017-09-30T02:57:04.746Z,21.90
2017-09-30T02:59:32.226Z,19.60
2017-09-30T03:02:00.454Z,24.60
2017-09-30T03:04:27.931Z,20.30
2017-09-30T03:06:55.391Z,31.43
2017-09-30T03:09:24.386Z,17.50
2017-09-30T03:11:51.850Z,19.13
2017-09-30T03:14:20.082Z,18.40
2017-09-30T03:16:47.549Z,25.00
2017-09-30T03:19:15.041Z,18.07
2017-09-30T03:21:42.522Z,26.07
2017-09-30T03:24:09.988Z,21.83
2017-09-30T03:26:37.470Z,26.50
2017-09-30T03:29:04.952Z,18.67
2017-09-30T03:31:32.436Z,20.30
2017-09-30T03:34:00.674Z,18.97
2017-09-30T03:36:28.138Z,20.70
2017-09-30T03:38:55.623Z,23.30
2017-09-30T03:41:23.851Z,18.90
2017-09-30T03:43:51.327Z,25.13
2017-09-30T03:46:18.794Z,15.53
2017-09-30T03:48:46.268Z,16.43
2017-09-30T03:51:14.527Z,18.90
2017-09-30T03:53:42.758Z,16.80
2017-09-30T03:56:10.211Z,15.27
2017-09-30T03:58:37.698Z,25.87
2017-09-30T04:01:05.179Z,27.10
2017-09-30T04:03:33.408Z,24.17
2017-09-30T04:06:00.872Z,19.00
2017-09-30T04:08:28.360Z,15.43
2017-09-30T04:10:55.862Z,15.63
2017-09-30T04:13:23.322Z,21.83
2017-09-30T04:15:50.792Z,22.90
2017-09-30T04:18:18.267Z,18.50
2017-09-30T04:20:45.740Z,25.63
2017-09-30T04:23:13.215Z,17.40
2017-09-30T04:25:41.443Z,17.40
2017-09-30T04:28:08.923Z,21.97
2017-09-30T04:30:36.385Z,21.63
2017-09-30T04:33:03.842Z,21.30
2017-09-30T04:35:32.091Z,21.80
2017-09-30T04:37:59.555Z,20.20
2017-09-30T04:40:27.055Z,21.87
2017-09-30T04:42:54.510Z,24.60
2017-09-30T04:45:21.983Z,19.23
2017-09-30T04:47:49.443Z,23.87
2017-09-30T04:50:16.910Z,24.40
2017-09-30T04:52:44.391Z,23.77
2017-09-30T04:55:11.858Z,23.00
2017-09-30T04:57:40.103Z,22.03
2017-09-30T05:00:07.569Z,21.53
2017-09-30T05:02:35.042Z,24.23
2017-09-30T05:05:02.520Z,28.77
2017-09-30T05:07:30.746Z,23.07
2017-09-30T05:09:58.248Z,27.43
2017-09-30T05:12:25.706Z,27.03
2017-09-30T05:14:53.930Z,23.30
2017-09-30T05:17:21.602Z,28.70
2017-09-30T05:19:49.074Z,22.40
2017-09-30T05:22:16.684Z,25.30
2017-09-30T05:24:44.184Z,23.43
2017-09-30T05:27:11.674Z,33.33
2017-09-30T05:29:40.124Z,27.67
2017-09-30T05:32:07.599Z,27.10
2017-09-30T05:34:35.265Z,29.23
2017-09-30T05:37:03.542Z,28.77
2017-09-30T05:39:31.774Z,29.60
2017-09-30T05:41:59.255Z,26.43
2017-09-30T05:44:26.757Z,26.43
2017-09-30T05:46:54.214Z,26.67
2017-09-30T05:49:21.673Z,28.80
2017-09-30T05:51:49.527Z,27.73
2017-09-30T05:54:17.966Z,23.57
2017-09-30T05:56:45.446Z,26.10
2017-09-30T05:59:13.899Z,25.60
2017-09-30T06:01:41.520Z,28.90
2017-09-30T06:04:09.071Z,22.80
2017-09-30T06:06:36.586Z,33.43
2017-09-30T06:09:04.281Z,24.93
2017-09-30T06:11:32.347Z,21.23
2017-09-30T06:14:01.089Z,23.43
2017-09-30T06:16:28.635Z,23.00
2017-09-30T06:18:56.327Z,30.70
2017-09-30T06:21:23.902Z,26.53
2017-09-30T06:23:52.119Z,23.30
2017-09-30T06:26:19.603Z,23.17
2017-09-30T06:28:47.071Z,24.17
2017-09-30T06:31:14.821Z,22.27
2017-09-30T06:33:42.443Z,28.20
2017-09-30T06:36:10.177Z,24.57
2017-09-30T06:38:38.403Z,28.30
2017-09-30T06:41:05.942Z,22.60
2017-09-30T06:43:33.436Z,21.60
2017-09-30T06:49:04.667Z,26.50
2017-09-30T06:51:32.934Z,25.70
2017-09-30T06:54:00.471Z,24.90
2017-09-30T06:56:28.110Z,33.83
2017-09-30T06:58:55.659Z,26.93
2017-09-30T07:01:23.146Z,34.00
2017-09-30T07:03:51.401Z,25.77
2017-09-30T07:06:18.886Z,24.87
2017-09-30T07:08:46.419Z,24.90
2017-09-30T07:11:14.654Z,22.00
2017-09-30T07:13:42.214Z,26.63
2017-09-30T07:16:09.674Z,26.67
2017-09-30T07:18:37.255Z,33.17
2017-09-30T07:21:04.738Z,31.07
2017-09-30T07:23:32.966Z,28.67
2017-09-30T07:26:00.448Z,26.03
2017-09-30T07:28:27.927Z,28.43
2017-09-30T07:30:56.155Z,37.57
2017-09-30T07:33:23.643Z,25.27
2017-09-30T07:35:52.689Z,30.30
2017-09-30T07:38:20.148Z,29.57
2017-09-30T07:40:47.659Z,28.43
2017-09-30T07:43:15.989Z,31.33
2017-09-30T07:45:43.471Z,37.73
2017-09-30T07:48:11.066Z,46.93
2017-09-30T07:50:39.365Z,42.33
2017-09-30T07:53:06.840Z,43.77
2017-09-30T07:55:34.323Z,40.97
2017-09-30T07:58:01.810Z,40.33
2017-09-30T08:00:30.070Z,44.60
2017-09-30T08:02:58.312Z,45.17
2017-09-30T08:05:25.862Z,42.53
2017-09-30T08:07:53.380Z,36.93
2017-09-30T08:10:20.871Z,36.40
2017-09-30T08:12:48.386Z,30.20
2017-09-30T08:15:16.639Z,27.70
2017-09-30T08:17:44.163Z,29.77
2017-09-30T08:20:11.674Z,28.30
2017-09-30T08:22:39.230Z,30.87
2017-09-30T08:25:06.848Z,31.47
2017-09-30T08:27:34.333Z,26.87
2017-09-30T08:30:01.805Z,23.40
2017-09-30T08:32:30.047Z,35.30
2017-09-30T08:34:57.518Z,21.10
2017-09-30T08:37:24.995Z,25.60
2017-09-30T08:39:53.239Z,20.20
2017-09-30T08:42:20.715Z,27.87
2017-09-30T08:44:48.184Z,25.80
2017-09-30T08:47:16.444Z,22.57
2017-09-30T08:49:43.945Z,18.60
2017-09-30T08:52:11.506Z,15.77
2017-09-30T08:54:38.997Z,16.43
2017-09-30T08:57:06.489Z,15.03
2017-09-30T08:59:34.735Z,19.00
2017-09-30T09:02:02.821Z,15.50
2017-09-30T09:04:30.403Z,10.73
2017-09-30T09:06:58.077Z,19.90
2017-09-30T09:09:25.667Z,24.20
2017-09-30T09:11:53.143Z,27.03
2017-09-30T09:14:20.632Z,28.90
2017-09-30T09:16:48.821Z,29.60
2017-09-30T09:19:16.839Z,25.50
2017-09-30T09:21:44.325Z,25.20
2017-09-30T09:24:12.566Z,25.80
2017-09-30T09:26:40.055Z,28.97
2017-09-30T09:29:08.312Z,29.80
2017-09-30T09:31:35.802Z,26.83
2017-09-30T09:34:03.273Z,29.40
2017-09-30T09:36:30.768Z,25.17
2017-09-30T09:38:58.249Z,28.40
2017-09-30T09:41:25.731Z,26.10
2017-09-30T09:43:53.311Z,20.20
2017-09-30T09:46:20.810Z,33.77
2017-09-30T09:48:48.282Z,26.60
2017-09-30T09:51:15.837Z,22.83
2017-09-30T09:53:43.312Z,14.30
2017-09-30T09:56:11.572Z,17.80
2017-09-30T09:58:39.820Z,12.90
2017-09-30T10:01:07.289Z,20.57
2017-09-30T10:03:34.790Z,19.50
2017-09-30T10:06:02.256Z,23.13
2017-09-30T10:08:29.746Z,25.63
2017-09-30T10:10:57.215Z,28.57
2017-09-30T10:13:24.707Z,26.90
2017-09-30T10:15:52.204Z,39.40
2017-09-30T10:18:19.667Z,31.97
2017-09-30T10:20:47.167Z,22.90
2017-09-30T10:23:15.394Z,30.43
2017-09-30T10:25:42.870Z,30.87
2017-09-30T10:28:10.388Z,29.53
2017-09-30T10:30:37.855Z,28.57
2017-09-30T10:33:05.326Z,25.03
2017-09-30T10:35:32.827Z,21.90
2017-09-30T10:38:00.332Z,23.70
2017-09-30T10:40:27.816Z,29.60
2017-09-30T10:42:55.284Z,19.07
2017-09-30T10:45:22.780Z,21.73
2017-09-30T10:47:50.244Z,20.87
2017-09-30T10:50:17.709Z,23.20
2017-09-30T10:52:45.192Z,25.40
2017-09-30T10:55:12.663Z,23.43
2017-09-30T10:57:40.154Z,27.83
2017-09-30T11:00:07.728Z,20.73
2017-09-30T11:02:35.207Z,21.90
2017-09-30T11:05:02.663Z,26.00
2017-09-30T11:07:30.131Z,20.07
2017-09-30T11:09:57.630Z,23.97
2017-09-30T11:12:25.850Z,27.80
2017-09-30T11:14:53.327Z,29.13
2017-09-30T11:17:20.802Z,36.57
2017-09-30T11:19:49.055Z,37.40
2017-09-30T11:22:16.547Z,30.87
2017-09-30T11:24:44.781Z,28.73
2017-09-30T11:27:12.254Z,37.83
2017-09-30T11:29:39.762Z,26.40
2017-09-30T11:32:07.247Z,33.13
2017-09-30T11:34:34.730Z,30.63
2017-09-30T11:37:02.198Z,40.90
2017-09-30T11:39:30.473Z,33.43
2017-09-30T11:41:58.702Z,29.03
2017-09-30T11:44:26.166Z,35.40
2017-09-30T11:46:53.647Z,31.90
2017-09-30T11:49:21.115Z,36.30
2017-09-30T11:51:49.360Z,31.47
2017-09-30T11:54:16.842Z,25.73
2017-09-30T11:56:45.080Z,30.67
2017-09-30T11:59:12.586Z,30.80
2017-09-30T12:01:40.819Z,28.57
2017-09-30T12:04:08.308Z,35.23
2017-09-30T12:06:36.547Z,37.20
2017-09-30T12:09:04.020Z,38.20
2017-09-30T12:11:31.487Z,35.70
2017-09-30T12:13:59.743Z,36.57
2017-09-30T12:16:27.349Z,29.07
2017-09-30T12:18:55.025Z,28.50
2017-09-30T12:21:22.495Z,29.80
2017-09-30T12:23:50.172Z,22.73
2017-09-30T12:26:17.767Z,20.70
2017-09-30T12:28:45.698Z,31.57
2017-09-30T12:31:13.175Z,28.03
2017-09-30T12:33:40.646Z,23.40
2017-09-30T12:36:08.218Z,26.50
2017-09-30T12:38:36.493Z,35.17
2017-09-30T12:41:04.828Z,27.13
2017-09-30T12:43:32.356Z,26.80
2017-09-30T12:45:59.875Z,25.23
2017-09-30T12:48:28.115Z,22.93
2017-09-30T12:50:55.849Z,22.00
2017-09-30T12:53:23.331Z,33.03
2017-09-30T12:55:50.811Z,32.03
2017-09-30T12:58:18.370Z,22.50
2017-09-30T13:00:45.856Z,17.30
2017-09-30T13:03:15.099Z,26.27
2017-09-30T13:05:42.554Z,22.53
2017-09-30T13:08:10.023Z,20.80
2017-09-30T13:10:37.510Z,15.63
2017-09-30T13:13:05.090Z,22.30
2017-09-30T13:15:33.469Z,11.63
2017-09-30T13:18:01.019Z,25.63
2017-09-30T13:20:29.481Z,15.23
2017-09-30T13:22:57.085Z,22.40
2017-09-30T13:25:24.564Z,25.13
2017-09-30T13:27:52.031Z,21.20
2017-09-30T13:30:19.495Z,19.13
2017-09-30T13:32:46.971Z,20.60
2017-09-30T13:35:15.217Z,15.20
2017-09-30T13:37:42.683Z,20.10
2017-09-30T13:40:10.154Z,15.27
2017-09-30T13:42:38.387Z,22.53
2017-09-30T13:45:05.850Z,23.00
2017-09-30T13:47:33.331Z,28.33
2017-09-30T13:50:00.892Z,13.63
2017-09-30T13:52:28.363Z,18.77
2017-09-30T13:54:56.607Z,28.27
2017-09-30T13:57:24.078Z,15.93
2017-09-30T13:59:51.584Z,18.10
2017-09-30T14:02:19.147Z,16.67
2017-09-30T14:04:46.674Z,17.47
2017-09-30T14:07:14.922Z,18.50
2017-09-30T14:09:42.403Z,24.13
2017-09-30T14:12:10.709Z,20.77
2017-09-30T14:14:38.183Z,17.57
2017-09-30T14:17:05.637Z,18.83
2017-09-30T14:19:33.119Z,23.13
2017-09-30T14:22:00.582Z,18.90
2017-09-30T14:24:28.114Z,14.23
2017-09-30T14:26:55.595Z,20.10
2017-09-30T14:29:23.058Z,14.83
2017-09-30T14:31:50.598Z,14.20
2017-09-30T14:34:18.087Z,16.13
2017-09-30T14:36:46.347Z,11.07
2017-09-30T14:39:13.817Z,16.53
2017-09-30T14:41:42.074Z,14.03
2017-09-30T14:44:09.553Z,15.37
2017-09-30T14:46:37.862Z,11.07
2017-09-30T14:49:05.340Z,16.30
2017-09-30T14:51:32.818Z,12.63
2017-09-30T14:54:01.059Z,13.70
2017-09-30T14:56:28.558Z,17.63
2017-09-30T14:58:56.008Z,13.10
2017-09-30T15:01:23.520Z,15.27
2017-09-30T15:03:52.712Z,11.90
2017-09-30T15:06:20.305Z,12.77
2017-09-30T15:08:47.771Z,8.93
2017-09-30T15:11:15.289Z,10.17
2017-09-30T15:13:42.745Z,11.97
2017-09-30T15:16:10.227Z,15.80
2017-09-30T15:18:37.832Z,10.60
2017-09-30T15:21:06.047Z,9.83
2017-09-30T15:23:33.523Z,11.73
2017-09-30T15:26:01.011Z,8.17
2017-09-30T15:28:28.474Z,10.97
2017-09-30T15:30:56.707Z,9.70
2017-09-30T15:33:24.167Z,15.87
2017-09-30T15:35:51.658Z,13.87
2017-09-30T15:38:19.130Z,7.50
2017-09-30T15:40:47.782Z,12.60
2017-09-30T15:43:15.463Z,8.73
2017-09-30T15:45:43.048Z,16.70
2017-09-30T15:48:10.532Z,15.93
2017-09-30T15:50:38.091Z,13.73
2017-09-30T15:53:05.552Z,11.50
2017-09-30T15:55:33.054Z,19.80
2017-09-30T15:58:01.482Z,11.07
2017-09-30T16:00:29.036Z,15.10
2017-09-30T16:02:56.501Z,9.47
2017-09-30T16:05:24.246Z,16.13
2017-09-30T16:07:52.167Z,12.60
2017-09-30T16:10:19.626Z,14.63
2017-09-30T16:12:47.875Z,17.43
2017-09-30T16:15:15.402Z,14.33
2017-09-30T16:17:42.993Z,18.07
2017-09-30T16:20:10.471Z,18.00
2017-09-30T16:22:38.054Z,14.47
2017-09-30T16:25:05.540Z,12.93
2017-09-30T16:27:33.120Z,19.27
2017-09-30T16:30:01.394Z,16.23
2017-09-30T16:32:29.090Z,19.33
2017-09-30T16:34:56.807Z,12.00
2017-09-30T16:37:24.308Z,10.63
2017-09-30T16:39:51.920Z,16.57
2017-09-30T16:42:19.468Z,10.87
2017-09-30T16:44:46.943Z,14.30
2017-09-30T16:47:14.482Z,14.80
2017-09-30T16:49:42.170Z,12.67
2017-09-30T16:52:11.033Z,13.33
2017-09-30T16:54:38.499Z,16.43
2017-09-30T16:57:05.979Z,19.07
2017-09-30T16:59:33.463Z,11.40
2017-09-30T17:02:00.974Z,19.47
2017-09-30T17:04:28.862Z,14.73
2017-09-30T17:06:56.392Z,18.30
2017-09-30T17:09:23.858Z,17.53
2017-09-30T17:11:51.349Z,14.87
2017-09-30T17:14:18.812Z,17.90
2017-09-30T17:16:46.296Z,16.53
2017-09-30T17:19:13.782Z,22.37
2017-09-30T17:21:41.268Z,20.37
2017-09-30T17:24:08.742Z,19.50
2017-09-30T17:26:36.975Z,16.83
2017-09-30T17:29:04.451Z,15.03
2017-09-30T17:31:31.935Z,16.93
2017-09-30T17:34:00.158Z,26.80
2017-09-30T17:36:27.629Z,18.80
2017-09-30T17:38:55.095Z,14.60
2017-09-30T17:41:23.350Z,27.17
2017-09-30T17:43:50.818Z,21.13
2017-09-30T17:46:19.071Z,13.00
2017-09-30T17:48:46.597Z,20.03
2017-09-30T17:51:14.087Z,17.43
2017-09-30T17:53:41.564Z,14.63
2017-09-30T17:56:09.079Z,18.70
2017-09-30T17:58:36.553Z,18.77
2017-09-30T18:01:04.112Z,19.93
2017-09-30T18:03:31.582Z,19.97
2017-09-30T18:05:59.059Z,15.20
2017-09-30T18:08:26.547Z,18.73
2017-09-30T18:10:54.784Z,15.63
2017-09-30T18:13:22.280Z,15.90
2017-09-30T18:15:50.608Z,17.43
2017-09-30T18:18:18.179Z,18.27
2017-09-30T18:20:45.660Z,26.10
2017-09-30T18:23:13.213Z,21.83
2017-09-30T18:25:40.703Z,25.83
2017-09-30T18:28:08.202Z,24.13
2017-09-30T18:30:35.699Z,18.23
2017-09-30T18:33:04.172Z,16.40
2017-09-30T18:35:32.499Z,14.60
2017-09-30T18:38:00.105Z,21.17
2017-09-30T18:40:27.642Z,20.57
2017-09-30T18:42:55.124Z,28.33
2017-09-30T18:45:22.844Z,21.53
2017-09-30T18:47:51.442Z,11.63
2017-09-30T18:50:19.023Z,22.77
2017-09-30T18:52:46.578Z,16.70
2017-09-30T18:55:14.083Z,21.80
2017-09-30T18:57:41.584Z,14.70
2017-09-30T19:00:09.051Z,24.70
2017-09-30T19:02:37.323Z,18.30
2017-09-30T19:05:05.063Z,19.07
2017-09-30T19:07:32.542Z,20.00
2017-09-30T19:10:00.134Z,15.67
2017-09-30T19:12:27.836Z,11.87
2017-09-30T19:14:55.309Z,18.40
2017-09-30T19:17:23.028Z,19.90
2017-09-30T19:19:50.887Z,23.90
2017-09-30T19:22:18.380Z,16.17
2017-09-30T19:24:45.963Z,12.90
2017-09-30T19:27:14.239Z,14.10
2017-09-30T19:29:41.739Z,20.53
2017-09-30T19:32:09.204Z,42.33
2017-09-30T19:34:36.836Z,21.00
2017-09-30T19:37:04.341Z,23.90
2017-09-30T19:39:32.074Z,26.73
2017-09-30T19:41:59.625Z,23.87
2017-09-30T19:44:27.096Z,13.50
2017-09-30T19:46:54.584Z,17.33
2017-09-30T19:49:22.092Z,20.00
2017-09-30T19:51:49.563Z,17.20
2017-09-30T19:54:17.067Z,16.67
2017-09-30T19:56:44.742Z,23.83
2017-09-30T19:59:12.279Z,19.27
2017-09-30T20:01:39.783Z,18.27
2017-09-30T20:04:07.350Z,18.20
2017-09-30T20:06:34.973Z,13.73
2017-09-30T20:09:02.591Z,24.80
2017-09-30T20:11:30.297Z,20.47
2017-09-30T20:13:58.605Z,28.20
2017-09-30T20:16:26.106Z,17.47
2017-09-30T20:18:53.624Z,24.40
2017-09-30T20:21:21.183Z,23.80
2017-09-30T20:23:48.728Z,22.60
2017-09-30T20:26:16.272Z,20.80
2017-09-30T20:28:43.967Z,20.50
2017-09-30T20:31:11.510Z,20.83
2017-09-30T20:33:38.975Z,16.73
2017-09-30T20:36:06.560Z,17.70
2017-09-30T20:38:34.079Z,18.60
2017-09-30T20:41:02.315Z,14.87
2017-09-30T20:43:29.785Z,19.93
2017-09-30T20:45:57.277Z,19.27
2017-09-30T20:48:24.849Z,18.13
2017-09-30T20:50:52.314Z,19.00
2017-09-30T20:53:19.788Z,18.67
2017-09-30T20:55:47.325Z,17.57
2017-09-30T20:58:14.796Z,19.53
2017-09-30T21:00:42.265Z,21.23
2017-09-30T21:03:10.495Z,21.93
2017-09-30T21:05:37.990Z,17.83
2017-09-30T21:08:05.464Z,16.27
2017-09-30T21:10:32.931Z,22.10
2017-09-30T21:13:00.440Z,23.87
2017-09-30T21:15:27.917Z,25.70
2017-09-30T21:17:55.383Z,29.57
2017-09-30T21:20:22.868Z,30.13
2017-09-30T21:22:51.101Z,34.30
2017-09-30T21:25:18.574Z,26.10
2017-09-30T21:27:46.091Z,21.87
2017-09-30T21:30:13.685Z,35.07
2017-09-30T21:35:15.106Z,29.63
2017-09-30T21:37:42.591Z,36.70
2017-09-30T21:40:10.064Z,24.30
2017-09-30T21:42:37.532Z,33.47
2017-09-30T21:45:06.530Z,23.03
2017-09-30T21:47:34.014Z,36.93
2017-09-30T21:50:01.491Z,37.87
2017-09-30T21:52:28.959Z,34.90
2017-09-30T21:54:56.453Z,21.83
2017-09-30T21:57:23.943Z,28.17
2017-09-30T21:59:52.162Z,27.20
2017-09-30T22:02:19.643Z,22.23
2017-09-30T22:04:47.140Z,39.63
2017-09-30T22:07:14.628Z,47.13
2017-09-30T22:09:42.100Z,33.57
2017-09-30T22:12:09.580Z,22.63
2017-09-30T22:14:37.043Z,25.93
2017-09-30T22:17:05.300Z,22.23
2017-09-30T22:19:32.808Z,27.50
2017-09-30T22:22:00.290Z,23.00
2017-09-30T22:24:27.767Z,27.80
2017-09-30T22:26:55.246Z,32.63
2017-09-30T22:29:23.537Z,32.77
2017-09-30T22:31:51.776Z,40.97
2017-09-30T22:34:19.243Z,55.70
2017-09-30T22:36:46.698Z,36.60
2017-09-30T22:39:14.204Z,33.00
2017-09-30T22:41:41.662Z,36.77
2017-09-30T22:44:09.122Z,41.50
2017-09-30T22:46:36.606Z,32.37
2017-09-30T22:49:04.070Z,38.83
2017-09-30T22:51:33.071Z,34.47
2017-09-30T22:54:01.310Z,41.43
2017-09-30T22:56:28.801Z,36.90
2017-09-30T22:58:56.288Z,39.03
2017-09-30T23:01:23.750Z,38.47
2017-09-30T23:03:51.224Z,35.83
2017-09-30T23:06:18.686Z,48.07
2017-09-30T23:08:46.154Z,38.23
2017-09-30T23:11:13.654Z,42.13
2017-09-30T23:13:41.867Z,38.90
2017-09-30T23:16:09.344Z,34.30
2017-09-30T23:18:36.810Z,37.77
2017-09-30T23:21:05.053Z,34.53
2017-09-30T23:23:32.519Z,39.67
2017-09-30T23:26:00.018Z,35.93
2017-09-30T23:28:28.982Z,33.40
2017-09-30T23:30:56.482Z,36.70
2017-09-30T23:33:24.739Z,31.70
2017-09-30T23:35:52.959Z,35.77
2017-09-30T23:38:20.439Z,44.03
2017-09-30T23:40:47.918Z,41.73
2017-09-30T23:43:15.391Z,34.43
2017-09-30T23:45:43.610Z,33.87
2017-09-30T23:48:11.293Z,36.57
2017-09-30T23:50:40.302Z,38.93
2017-09-30T23:53:07.788Z,36.80
2017-09-30T23:55:35.287Z,37.17
2017-09-30T23:58:02.763Z,37.23
